Airfield :
LOGIN :

Register | Disclaimer

   EN    FR    IT 

 










Legend :    VFR   Marginal VFR   IFR   Intensive IFR   Very Intensive IFR
Visi :
Ceiling :
>= 8 km
>= 3000ft
5 to 8 km
1000 to 3000 ft
1500m to 5 km
500 to 1000 ft
800 to 1500m
200 to 500 ft
< 800m
< 200 ft
Symbols :   Thunderstorms  Fog  Heavy snow  Heavy precipitations  Wind > 20 kt
SIGMETs :     Misc.  Thunderstorms  Icing  Turbulence  Mountain Waves  Volcanic Ashes







- Airport Elevation : 0 ft


ETEB - Ansbach Army Heliport

CURRENT METAR :
  • 251113Z AUTO 02006KT 9999 OVC029 14/10 A3013 RMK AO2 SLP215 $

EXPIRED METARs :
  • 251058Z AUTO 04005KT 9999 OVC027 14/10 A3013 RMK AO2 SLP215 T01410096 $
  • 251023Z AUTO 02004KT 9999 BKN024 BKN034 15/10 A3013 RMK AO2 CIG 024V034 BKN024 V FEW SLP215 $
  • 250958Z AUTO 14006KT 9999 CLR 14/14 A3014 RMK AO2 SLP219 T01400138 $
  • 250858Z AUTO 00000KT 9999 CLR 12/12 A3015 RMK AO2 SLP224 T01180118 53001 $

TAF AMD TAF ETEB
Valid from the 25 at 06:00 until the 26 at 11:00 UTC


250636Z 2506/2611 VRB06KT 9999 FEW030 QNH3009INS
BECMG 2508/2509 VRB06KT 9999 BKN030 QNH3007INS
BECMG 2523/2524 VRB06KT 6000 BR FEW030 QNH3007INS
TEMPO 2601/2604 2400 BR TX18/2514Z TN05/2506Z
No reported NOTAMs for that airfield.



MET'MAP, your aeronautical weather chart ! - Copyright ORBIFLY December 2007 - Disclaimer

ORBIFLY MET'MAP TEAM :

Programming & Development : Alexandra Zaïnal
Concept & Development : Baudouin d'Aumeries
Co-Development & Prog : Marc-Olivier Méhu
Technical & hardware support : Manuel Goepfert

Contact : metmap@orbifly.com




SOURCES & CREDITS :

   NOAA